createdAt,value
2022-11-28T00:00:35.782Z,96131.19
2022-11-28T00:03:22.716Z,96119.28
2022-11-28T00:06:09.339Z,96120.41
2022-11-28T00:08:57.384Z,96111.59
2022-11-28T00:11:44.869Z,96103.78
2022-11-28T00:14:30.959Z,96105.88
2022-11-28T00:17:16.825Z,96120.09
2022-11-28T00:20:02.786Z,96092.88
2022-11-28T00:22:49.334Z,96100.31
2022-11-28T00:25:35.310Z,96119.72
2022-11-28T00:28:21.281Z,96129.50
2022-11-28T00:31:12.739Z,96113.59
2022-11-28T00:33:58.988Z,96109.44
2022-11-28T00:36:46.449Z,96127.00
2022-11-28T00:39:32.386Z,96113.59
2022-11-28T00:42:21.139Z,96119.63
2022-11-28T00:45:07.433Z,96097.59
2022-11-28T00:47:53.475Z,96117.41
2022-11-28T00:50:39.255Z,96107.91
2022-11-28T00:53:25.095Z,96094.94
2022-11-28T00:56:12.971Z,96107.78
2022-11-28T00:58:59.707Z,96110.81
2022-11-28T01:01:45.888Z,96100.19
2022-11-28T01:04:32.317Z,96107.63
2022-11-28T01:07:18.277Z,96113.59
2022-11-28T01:10:04.533Z,96106.34
2022-11-28T01:12:50.932Z,96100.19
2022-11-28T01:15:37.457Z,96094.31
2022-11-28T01:18:23.643Z,96095.16
2022-11-28T01:21:09.757Z,96099.88
2022-11-28T01:23:55.909Z,96089.16
2022-11-28T01:26:42.755Z,96093.19
2022-11-28T01:29:28.637Z,96083.69
2022-11-28T01:32:15.178Z,96099.03
2022-11-28T01:35:01.189Z,96092.34
2022-11-28T01:37:47.002Z,96085.22
2022-11-28T01:40:32.969Z,96080.34
2022-11-28T01:43:19.286Z,96090.22
2022-11-28T01:46:06.149Z,96085.91
2022-11-28T01:48:52.777Z,96087.41
2022-11-28T01:51:41.878Z,96085.44
2022-11-28T01:54:28.723Z,96078.59
2022-11-28T01:57:20.763Z,96088.78
2022-11-28T02:00:15.574Z,96091.44
2022-11-28T02:03:06.990Z,96076.69
2022-11-28T02:05:53.285Z,96087.41
2022-11-28T02:08:39.334Z,96090.91
2022-11-28T02:11:31.227Z,96088.09
2022-11-28T02:14:35.020Z,96085.22
2022-11-28T02:17:42.120Z,96095.38
2022-11-28T02:20:46.536Z,96088.94
2022-11-28T02:23:57.488Z,96084.63
2022-11-28T02:27:06.375Z,96096.25
2022-11-28T02:30:21.361Z,96095.69
2022-11-28T02:33:12.757Z,96077.91
2022-11-28T02:36:20.478Z,96084.34
2022-11-28T02:39:12.525Z,96096.75
2022-11-28T02:42:09.895Z,96087.09
2022-11-28T02:45:00.373Z,96069.78
2022-11-28T02:47:50.526Z,96081.63
2022-11-28T02:51:07.929Z,96087.94
2022-11-28T02:53:55.594Z,96090.69
2022-11-28T02:56:52.932Z,96086.66
2022-11-28T02:59:38.962Z,96084.09
2022-11-28T03:02:30.441Z,96087.75
2022-11-28T03:05:24.833Z,96077.56
2022-11-28T03:08:16.862Z,96076.94
2022-11-28T03:11:27.863Z,96074.44
2022-11-28T03:14:22.448Z,96077.94
2022-11-28T03:17:36.821Z,96078.69
2022-11-28T03:20:28.335Z,96053.06
2022-11-28T03:23:18.035Z,96067.28
2022-11-28T03:26:14.902Z,96045.00
2022-11-28T03:29:08.741Z,96060.06
2022-11-28T03:32:01.678Z,96054.59
2022-11-28T03:34:47.883Z,96051.69
2022-11-28T03:37:36.864Z,96047.31
2022-11-28T03:40:26.100Z,96037.78
2022-11-28T03:43:19.339Z,96032.78
2022-11-28T03:46:06.530Z,96038.88
2022-11-28T03:48:55.577Z,96042.16
2022-11-28T03:51:46.849Z,96038.78
2022-11-28T03:54:51.840Z,96028.44
2022-11-28T03:57:45.506Z,96028.84
2022-11-28T04:00:33.848Z,96024.81
2022-11-28T04:03:30.100Z,96030.97
2022-11-28T04:06:21.087Z,96020.63
2022-11-28T04:09:14.527Z,96015.47
2022-11-28T04:12:07.732Z,96024.13
2022-11-28T04:14:57.542Z,96022.00
2022-11-28T04:17:58.378Z,96018.25
2022-11-28T04:21:03.443Z,96029.81
2022-11-28T04:23:50.912Z,96032.63
2022-11-28T04:26:40.885Z,96025.66
2022-11-28T04:29:29.197Z,96033.31
2022-11-28T04:32:19.104Z,96029.16
2022-11-28T04:35:10.220Z,96025.50
2022-11-28T04:37:57.075Z,96013.47
2022-11-28T04:40:56.691Z,96026.19
2022-11-28T04:43:48.284Z,96024.28
2022-11-28T04:46:39.514Z,96015.47
2022-11-28T04:49:27.074Z,96024.38
2022-11-28T04:52:22.072Z,96034.69
2022-11-28T04:55:31.415Z,96048.59
2022-11-28T04:58:22.393Z,96036.28
2022-11-28T05:01:10.608Z,96026.47
2022-11-28T05:03:56.805Z,96026.19
2022-11-28T05:06:43.121Z,96028.16
2022-11-28T05:09:29.156Z,96032.47
2022-11-28T05:12:15.039Z,96015.84
2022-11-28T05:15:01.259Z,96021.00
2022-11-28T05:17:47.215Z,96018.66
2022-11-28T05:20:33.268Z,96016.97
2022-11-28T05:23:19.107Z,96012.81
2022-11-28T05:26:10.199Z,96018.78
2022-11-28T05:28:57.068Z,96004.09
2022-11-28T05:31:43.556Z,96019.97
2022-11-28T05:34:31.142Z,96024.06
2022-11-28T05:37:17.379Z,96021.91
2022-11-28T05:40:04.131Z,96003.53
2022-11-28T05:42:50.418Z,96027.84
2022-11-28T05:45:40.956Z,96010.97
2022-11-28T05:48:26.804Z,96021.00
2022-11-28T05:51:13.035Z,96015.00
2022-11-28T05:53:59.123Z,96018.34
2022-11-28T05:56:45.029Z,96025.34
2022-11-28T05:59:31.032Z,96017.50
2022-11-28T06:02:17.022Z,96017.00
2022-11-28T06:05:20.969Z,96008.03
2022-11-28T06:08:09.709Z,96020.31
2022-11-28T06:10:57.774Z,96000.34
2022-11-28T06:13:45.007Z,96019.78
2022-11-28T06:16:31.779Z,96018.78
2022-11-28T06:19:17.935Z,96009.59
2022-11-28T06:22:04.483Z,95994.66
2022-11-28T06:24:50.407Z,96005.97
2022-11-28T06:27:36.318Z,95989.94
2022-11-28T06:30:22.336Z,96021.06
2022-11-28T06:33:08.337Z,96015.38
2022-11-28T06:36:05.387Z,96009.38
2022-11-28T06:38:51.630Z,96026.72
2022-11-28T06:41:38.049Z,96002.69
2022-11-28T06:44:24.254Z,96009.84
2022-11-28T06:47:10.224Z,96004.81
2022-11-28T06:49:56.239Z,96012.72
2022-11-28T06:52:42.510Z,96006.13
2022-11-28T06:55:29.859Z,96007.78
2022-11-28T06:58:15.726Z,96010.44
2022-11-28T07:01:17.528Z,96013.78
2022-11-28T07:04:03.333Z,96006.38
2022-11-28T07:06:49.524Z,96008.69
2022-11-28T07:09:35.610Z,95997.41
2022-11-28T07:12:21.355Z,95980.38
2022-11-28T07:15:08.264Z,95988.88
2022-11-28T07:17:54.467Z,95994.13
2022-11-28T07:20:40.592Z,95996.63
2022-11-28T07:23:26.821Z,96000.34
2022-11-28T07:26:16.418Z,96002.84
2022-11-28T07:29:02.340Z,96000.19
2022-11-28T07:31:48.378Z,95997.91
2022-11-28T07:34:34.911Z,95993.13
2022-11-28T07:37:20.973Z,95977.16
2022-11-28T07:40:07.549Z,95989.34
2022-11-28T07:42:53.681Z,95998.66
2022-11-28T07:45:59.441Z,95988.72
2022-11-28T07:48:48.206Z,95995.22
2022-11-28T07:51:34.844Z,95982.91
2022-11-28T07:54:20.749Z,95989.59
2022-11-28T07:57:14.221Z,95977.81
2022-11-28T08:00:00.428Z,95979.81
2022-11-28T08:02:46.427Z,95975.69
2022-11-28T08:05:32.485Z,95988.03
2022-11-28T08:08:19.608Z,95982.56
2022-11-28T08:11:07.471Z,95990.41
2022-11-28T08:13:56.401Z,95961.91
2022-11-28T08:16:47.204Z,95983.94
2022-11-28T08:19:35.391Z,95979.31
2022-11-28T08:22:21.524Z,95977.13
2022-11-28T08:25:07.688Z,95979.50
2022-11-28T08:27:53.772Z,95979.56
2022-11-28T08:30:39.832Z,95986.06
2022-11-28T08:33:26.385Z,95983.25
2022-11-28T08:36:14.722Z,95976.66
2022-11-28T08:39:24.111Z,95972.00
2022-11-28T08:42:07.594Z,95967.19
2022-11-28T08:44:53.650Z,95976.53
2022-11-28T08:47:39.459Z,95976.41
2022-11-28T08:50:25.523Z,95972.22
2022-11-28T08:53:11.391Z,95966.25
2022-11-28T08:55:57.278Z,95959.75
2022-11-28T08:58:43.684Z,95949.97
2022-11-28T09:01:30.136Z,95945.81
2022-11-28T09:04:16.346Z,95944.63
2022-11-28T09:07:02.341Z,95942.16
2022-11-28T09:09:48.768Z,95942.50
2022-11-28T09:12:35.223Z,95938.16
2022-11-28T09:15:21.325Z,95932.31
2022-11-28T09:18:07.818Z,95934.66
2022-11-28T09:21:02.134Z,95919.47
2022-11-28T09:23:48.337Z,95922.66
2022-11-28T09:26:34.502Z,95915.69
2022-11-28T09:29:20.606Z,95923.81
2022-11-28T09:32:06.783Z,95910.28
2022-11-28T09:34:52.816Z,95909.63
2022-11-28T09:37:38.636Z,95909.97
2022-11-28T09:40:43.206Z,95905.63
2022-11-28T09:43:35.980Z,95902.31
2022-11-28T09:46:25.001Z,95900.94
2022-11-28T09:49:36.744Z,95899.63
2022-11-28T09:52:32.595Z,95885.31
2022-11-28T09:55:36.628Z,95887.84
2022-11-28T09:58:32.052Z,95884.84
2022-11-28T10:01:21.385Z,95891.53
2022-11-28T10:04:26.279Z,95892.84
2022-11-28T10:07:24.554Z,95862.38
2022-11-28T10:10:42.364Z,95877.69
2022-11-28T10:14:07.051Z,95878.03
2022-11-28T10:16:57.323Z,95860.91
2022-11-28T10:19:55.403Z,95879.41
2022-11-28T10:22:56.218Z,95887.06
2022-11-28T10:25:46.504Z,95881.59
2022-11-28T10:28:35.448Z,95854.59
2022-11-28T10:31:37.082Z,95862.25
2022-11-28T10:34:42.726Z,95875.28
2022-11-28T10:37:31.600Z,95873.31
2022-11-28T10:40:36.369Z,95877.81
2022-11-28T10:43:31.324Z,95861.16
2022-11-28T10:46:21.822Z,95879.84
2022-11-28T10:49:26.096Z,95879.50
2022-11-28T10:52:47.465Z,95877.81
2022-11-28T10:55:56.312Z,95874.00
2022-11-28T10:58:59.138Z,95859.84
2022-11-28T11:01:49.885Z,95859.69
2022-11-28T11:04:37.336Z,95851.84
2022-11-28T11:07:29.734Z,95853.16
2022-11-28T11:10:24.580Z,95837.16
2022-11-28T11:13:17.527Z,95865.81
2022-11-28T11:16:10.285Z,95849.66
2022-11-28T11:18:56.361Z,95847.81
2022-11-28T11:21:58.584Z,95853.13
2022-11-28T11:24:45.108Z,95798.31
2022-11-28T11:27:31.574Z,95845.63
2022-11-28T11:30:26.004Z,95844.63
2022-11-28T11:33:17.466Z,95830.44
2022-11-28T11:36:05.672Z,95835.59
2022-11-28T11:38:52.148Z,95825.75
2022-11-28T11:41:43.464Z,95825.75
2022-11-28T11:44:34.324Z,95826.44
2022-11-28T11:47:20.474Z,95823.94
2022-11-28T11:50:06.998Z,95820.75
2022-11-28T11:53:12.807Z,95826.59
2022-11-28T11:56:01.614Z,95816.78
2022-11-28T11:58:51.002Z,95822.31
2022-11-28T12:01:38.016Z,95828.16
2022-11-28T12:04:45.846Z,95816.97
2022-11-28T12:07:56.966Z,95815.16
2022-11-28T12:10:46.806Z,95801.50
2022-11-28T12:13:33.293Z,95808.16
2022-11-28T12:16:34.321Z,95808.16
2022-11-28T12:19:38.714Z,95815.16
2022-11-28T12:22:55.668Z,95797.53
2022-11-28T12:25:50.627Z,95792.69
2022-11-28T12:28:55.090Z,95791.00
2022-11-28T12:32:00.106Z,95804.84
2022-11-28T12:35:04.895Z,95799.50
2022-11-28T12:38:11.149Z,95792.50
2022-11-28T12:41:32.948Z,95782.66
2022-11-28T12:44:43.294Z,95779.22
2022-11-28T12:48:10.398Z,95778.53
2022-11-28T12:51:25.788Z,95771.88
2022-11-28T12:54:41.029Z,95769.53
2022-11-28T12:57:30.674Z,95740.88
2022-11-28T13:00:22.849Z,95742.88
2022-11-28T13:03:22.738Z,95767.19
2022-11-28T13:06:28.549Z,95767.84
2022-11-28T13:09:34.422Z,95774.34
2022-11-28T13:12:25.051Z,95767.53
2022-11-28T13:15:21.080Z,95771.88
2022-11-28T13:18:44.523Z,95772.22
2022-11-28T13:21:42.910Z,95778.50
2022-11-28T13:25:00.859Z,95771.84
2022-11-28T13:28:02.192Z,95774.66
2022-11-28T13:30:58.096Z,95774.00
2022-11-28T13:34:04.095Z,95767.00
2022-11-28T13:40:26.015Z,95780.66
2022-11-28T13:43:22.368Z,95784.81
2022-11-28T13:46:09.548Z,95766.53
2022-11-28T13:49:15.145Z,95779.50
2022-11-28T13:52:21.656Z,95789.16
2022-11-28T13:55:36.511Z,95791.66
2022-11-28T13:58:35.195Z,95785.16
2022-11-28T14:01:23.686Z,95787.16
2022-11-28T14:04:12.491Z,95797.53
2022-11-28T14:07:03.701Z,95775.53
2022-11-28T14:10:28.101Z,95800.81
2022-11-28T14:13:28.036Z,95798.47
2022-11-28T14:16:23.168Z,95799.69
2022-11-28T14:19:40.383Z,95786.19
2022-11-28T14:23:04.951Z,95802.50
2022-11-28T14:25:53.914Z,95802.69
2022-11-28T14:28:44.583Z,95789.16
2022-11-28T14:31:40.369Z,95808.31
2022-11-28T14:34:36.295Z,95808.53
2022-11-28T14:37:22.162Z,95808.16
2022-11-28T14:40:47.891Z,95811.50
2022-11-28T14:43:54.402Z,95808.19
2022-11-28T14:47:07.248Z,95806.34
2022-11-28T14:50:05.527Z,95812.84
2022-11-28T14:53:32.022Z,95805.53
2022-11-28T14:56:23.021Z,95809.53
2022-11-28T14:59:10.258Z,95810.50
2022-11-28T15:02:12.516Z,95784.50
2022-11-28T15:05:00.262Z,95783.31
2022-11-28T15:08:19.991Z,95812.28
2022-11-28T15:11:23.972Z,95788.13
2022-11-28T15:14:10.198Z,95790.16
2022-11-28T15:17:01.524Z,95800.28
2022-11-28T15:19:49.101Z,95795.13
2022-11-28T15:22:43.742Z,95805.97
2022-11-28T15:25:35.692Z,95805.78
2022-11-28T15:28:23.866Z,95811.44
2022-11-28T15:31:21.561Z,95793.28
2022-11-28T15:34:10.091Z,95799.78
2022-11-28T15:37:03.769Z,95811.44
2022-11-28T15:39:50.299Z,95798.13
2022-11-28T15:42:38.921Z,95799.31
2022-11-28T15:45:28.370Z,95800.97
2022-11-28T15:48:40.472Z,95796.97
2022-11-28T15:51:32.969Z,95797.47
2022-11-28T15:54:38.372Z,95775.81
2022-11-28T15:57:27.247Z,95786.13
2022-11-28T16:00:19.072Z,95794.78
2022-11-28T16:03:05.776Z,95788.13
2022-11-28T16:05:52.727Z,95794.44
2022-11-28T16:08:48.445Z,95784.13
2022-11-28T16:11:36.110Z,95784.78
2022-11-28T16:14:28.511Z,95789.78
2022-11-28T16:17:25.235Z,95792.44
2022-11-28T16:20:22.347Z,95773.13
2022-11-28T16:23:10.619Z,95790.78
2022-11-28T16:26:01.823Z,95774.97
2022-11-28T16:29:05.996Z,95783.63
2022-11-28T16:31:52.283Z,95763.81
2022-11-28T16:34:46.811Z,95774.28
2022-11-28T16:37:33.382Z,95779.50
2022-11-28T16:40:23.703Z,95780.47
2022-11-28T16:43:32.530Z,95777.16
2022-11-28T16:46:24.113Z,95781.81
2022-11-28T16:49:29.873Z,95782.16
2022-11-28T16:52:22.366Z,95778.81
2022-11-28T16:55:26.998Z,95783.63
2022-11-28T16:58:15.833Z,95781.31
2022-11-28T17:01:02.522Z,95777.31
2022-11-28T17:03:51.510Z,95785.50
2022-11-28T17:06:37.994Z,95771.66
2022-11-28T17:09:24.217Z,95779.34
2022-11-28T17:12:20.012Z,95776.81
2022-11-28T17:15:10.267Z,95747.50
2022-11-28T17:17:57.365Z,95778.47
2022-11-28T17:20:43.305Z,95774.66
2022-11-28T17:23:29.733Z,95782.13
2022-11-28T17:26:15.733Z,95781.00
2022-11-28T17:29:01.914Z,95759.00
2022-11-28T17:31:48.908Z,95783.66
2022-11-28T17:34:35.381Z,95776.81
2022-11-28T17:37:21.448Z,95774.97
2022-11-28T17:40:26.576Z,95771.34
2022-11-28T17:43:21.111Z,95780.16
2022-11-28T17:46:07.603Z,95777.00
2022-11-28T17:48:54.582Z,95776.16
2022-11-28T17:51:40.762Z,95769.00
2022-11-28T17:54:27.417Z,95775.66
2022-11-28T17:57:13.746Z,95767.16
2022-11-28T18:00:00.826Z,95768.81
2022-11-28T18:02:47.102Z,95771.34
2022-11-28T18:05:37.077Z,95759.84
2022-11-28T18:08:23.235Z,95770.34
2022-11-28T18:11:10.947Z,95755.84
2022-11-28T18:13:58.508Z,95753.50
2022-11-28T18:16:44.644Z,95748.50
2022-11-28T18:19:31.488Z,95773.84
2022-11-28T18:22:17.324Z,95767.16
2022-11-28T18:25:03.982Z,95761.19
2022-11-28T18:27:50.408Z,95762.34
2022-11-28T18:30:44.191Z,95745.38
2022-11-28T18:33:30.419Z,95765.34
2022-11-28T18:36:25.111Z,95762.16
2022-11-28T18:39:13.763Z,95758.66
2022-11-28T18:42:00.246Z,95768.00
2022-11-28T18:44:46.357Z,95756.00
2022-11-28T18:47:32.353Z,95770.84
2022-11-28T18:50:18.380Z,95772.50
2022-11-28T18:53:04.232Z,95769.66
2022-11-28T18:56:00.165Z,95770.16
2022-11-28T18:58:48.554Z,95766.34
2022-11-28T19:01:35.571Z,95757.19
2022-11-28T19:04:23.605Z,95767.47
2022-11-28T19:07:10.571Z,95766.50
2022-11-28T19:09:56.469Z,95764.69
2022-11-28T19:12:43.905Z,95772.50
2022-11-28T19:15:29.645Z,95779.34
2022-11-28T19:18:15.760Z,95786.47
2022-11-28T19:21:05.285Z,95766.50
2022-11-28T19:23:51.926Z,95770.66
2022-11-28T19:26:38.930Z,95766.19
2022-11-28T19:29:25.101Z,95761.84
2022-11-28T19:32:12.634Z,95766.34
2022-11-28T19:34:59.260Z,95757.50
2022-11-28T19:37:45.825Z,95760.19
2022-11-28T19:40:31.790Z,95759.34
2022-11-28T19:43:18.163Z,95744.88
2022-11-28T19:46:04.656Z,95749.66
2022-11-28T19:48:51.895Z,95745.19
2022-11-28T19:51:38.330Z,95754.84
2022-11-28T19:54:24.428Z,95751.19
2022-11-28T19:57:13.179Z,95753.53
2022-11-28T19:59:59.690Z,95743.38
2022-11-28T20:02:45.722Z,95724.72
2022-11-28T20:05:33.176Z,95751.19
2022-11-28T20:08:19.487Z,95742.03
2022-11-28T20:11:13.831Z,95751.16
2022-11-28T20:14:15.395Z,95729.00
2022-11-28T20:17:01.863Z,95740.50
2022-11-28T20:19:48.154Z,95722.53
2022-11-28T20:22:35.263Z,95742.34
2022-11-28T20:25:21.382Z,95744.50
2022-11-28T20:28:09.720Z,95745.50
2022-11-28T20:30:56.620Z,95744.34
2022-11-28T20:33:42.684Z,95739.53
2022-11-28T20:36:31.493Z,95743.03
2022-11-28T20:39:17.696Z,95728.53
2022-11-28T20:42:04.387Z,95739.50
2022-11-28T20:44:50.571Z,95743.00
2022-11-28T20:47:36.588Z,95742.34
2022-11-28T20:50:22.390Z,95733.34
2022-11-28T20:53:08.229Z,95717.84
2022-11-28T20:56:01.858Z,95741.19
2022-11-28T20:58:48.394Z,95732.69
2022-11-28T21:01:36.900Z,95712.38
2022-11-28T21:04:22.775Z,95704.69
2022-11-28T21:07:08.977Z,95719.16
2022-11-28T21:09:59.868Z,95719.16
2022-11-28T21:12:46.085Z,95725.50
2022-11-28T21:15:32.172Z,95705.34
2022-11-28T21:18:18.363Z,95691.72
2022-11-28T21:21:16.254Z,95708.84
2022-11-28T21:24:05.344Z,95702.34
2022-11-28T21:26:54.500Z,95709.69
2022-11-28T21:29:40.688Z,95716.34
2022-11-28T21:32:27.017Z,95704.03
2022-11-28T21:35:13.275Z,95712.47
2022-11-28T21:37:59.112Z,95702.84
2022-11-28T21:40:52.264Z,95705.34
2022-11-28T21:43:39.442Z,95688.81
2022-11-28T21:46:25.703Z,95700.97
2022-11-28T21:49:11.652Z,95699.16
2022-11-28T21:51:58.897Z,95707.44
2022-11-28T21:54:44.785Z,95702.31
2022-11-28T21:57:31.220Z,95705.63
2022-11-28T22:00:45.612Z,95708.09
2022-11-28T22:03:23.971Z,95702.97
2022-11-28T22:06:21.713Z,95701.13
2022-11-28T22:09:09.821Z,95684.00
2022-11-28T22:11:57.611Z,95693.34
2022-11-28T22:14:43.656Z,95673.88
2022-11-28T22:17:31.612Z,95692.00
2022-11-28T22:20:17.595Z,95692.34
2022-11-28T22:23:03.593Z,95676.22
2022-11-28T22:25:53.297Z,95678.88
2022-11-28T22:28:41.519Z,95681.22
2022-11-28T22:31:28.416Z,95682.34
2022-11-28T22:34:14.972Z,95680.34
2022-11-28T22:37:00.711Z,95683.69
2022-11-28T22:39:46.657Z,95661.72
2022-11-28T22:42:32.512Z,95662.72
2022-11-28T22:45:18.451Z,95661.56
2022-11-28T22:48:04.979Z,95686.19
2022-11-28T22:50:51.272Z,95656.38
2022-11-28T22:53:37.315Z,95659.03
2022-11-28T22:56:23.697Z,95671.88
2022-11-28T22:59:14.313Z,95674.53
2022-11-28T23:02:01.391Z,95644.91
2022-11-28T23:04:48.270Z,95666.41
2022-11-28T23:07:34.170Z,95658.41
2022-11-28T23:10:21.123Z,95664.91
2022-11-28T23:13:06.911Z,95668.91
2022-11-28T23:15:52.997Z,95666.41
2022-11-28T23:18:39.133Z,95654.09
2022-11-28T23:21:26.857Z,95668.75
2022-11-28T23:24:21.875Z,95663.72
2022-11-28T23:27:07.717Z,95659.59
2022-11-28T23:29:53.475Z,95663.06
2022-11-28T23:32:39.237Z,95657.06
2022-11-28T23:35:25.549Z,95658.25
2022-11-28T23:38:11.454Z,95649.91
2022-11-28T23:40:57.539Z,95642.94
2022-11-28T23:46:48.456Z,95638.09
2022-11-28T23:49:34.816Z,95659.53
2022-11-28T23:52:20.637Z,95657.88
2022-11-28T23:55:07.000Z,95660.38
2022-11-28T23:57:54.301Z,95660.50
